sensor_id;sensor_type;location;lat;lon;timestamp;temperature;humidity
73149;SHT30;61346;48.930;2.266;2022-08-11T00:01:47;26.39;34.48
73149;SHT30;61346;48.930;2.266;2022-08-11T00:04:14;26.36;34.44
73149;SHT30;61346;48.930;2.266;2022-08-11T00:06:41;26.32;34.41
73149;SHT30;61346;48.930;2.266;2022-08-11T00:09:11;26.32;34.71
73149;SHT30;61346;48.930;2.266;2022-08-11T00:11:44;26.24;34.73
73149;SHT30;61346;48.930;2.266;2022-08-11T00:14:21;26.21;34.77
73149;SHT30;61346;48.930;2.266;2022-08-11T00:16:56;26.14;35.04
73149;SHT30;61346;48.930;2.266;2022-08-11T00:19:29;26.11;35.12
73149;SHT30;61346;48.930;2.266;2022-08-11T00:21:55;26.09;35.19
73149;SHT30;61346;48.930;2.266;2022-08-11T00:24:22;26.06;35.21
73149;SHT30;61346;48.930;2.266;2022-08-11T00:26:53;26.02;35.21
73149;SHT30;61346;48.930;2.266;2022-08-11T00:29:19;25.98;35.71
73149;SHT30;61346;48.930;2.266;2022-08-11T00:31:53;25.95;35.51
73149;SHT30;61346;48.930;2.266;2022-08-11T00:34:22;25.92;35.13
73149;SHT30;61346;48.930;2.266;2022-08-11T00:37:05;25.90;35.32
73149;SHT30;61346;48.930;2.266;2022-08-11T00:39:35;25.84;35.57
73149;SHT30;61346;48.930;2.266;2022-08-11T00:42:30;25.82;35.29
73149;SHT30;61346;48.930;2.266;2022-08-11T00:45:23;25.81;35.42
73149;SHT30;61346;48.930;2.266;2022-08-11T00:48:24;25.75;35.59
73149;SHT30;61346;48.930;2.266;2022-08-11T00:53:51;25.69;35.82
73149;SHT30;61346;48.930;2.266;2022-08-11T01:22:50;25.33;36.52
73149;SHT30;61346;48.930;2.266;2022-08-11T01:45:48;25.02;36.72
73149;SHT30;61346;48.930;2.266;2022-08-11T01:48:41;24.98;36.35
73149;SHT30;61346;48.930;2.266;2022-08-11T01:51:19;24.94;36.31
73149;SHT30;61346;48.930;2.266;2022-08-11T01:59:20;24.81;36.59
73149;SHT30;61346;48.930;2.266;2022-08-11T02:02:12;24.80;36.70
73149;SHT30;61346;48.930;2.266;2022-08-11T02:05:13;24.72;36.94
73149;SHT30;61346;48.930;2.266;2022-08-11T02:07:58;24.68;37.09
73149;SHT30;61346;48.930;2.266;2022-08-11T02:10:46;24.68;36.77
73149;SHT30;61346;48.930;2.266;2022-08-11T02:18:59;24.56;36.85
73149;SHT30;61346;48.930;2.266;2022-08-11T02:21:50;24.51;36.97
73149;SHT30;61346;48.930;2.266;2022-08-11T02:24:47;24.49;36.86
73149;SHT30;61346;48.930;2.266;2022-08-11T02:27:19;24.46;37.18
73149;SHT30;61346;48.930;2.266;2022-08-11T02:29:58;24.43;37.27
73149;SHT30;61346;48.930;2.266;2022-08-11T02:35:55;24.34;37.06
73149;SHT30;61346;48.930;2.266;2022-08-11T02:38:47;24.30;37.11
73149;SHT30;61346;48.930;2.266;2022-08-11T02:41:20;24.26;37.19
73149;SHT30;61346;48.930;2.266;2022-08-11T02:44:31;24.22;37.28
73149;SHT30;61346;48.930;2.266;2022-08-11T02:47:16;24.17;37.32
73149;SHT30;61346;48.930;2.266;2022-08-11T02:50:22;24.12;37.34
73149;SHT30;61346;48.930;2.266;2022-08-11T02:53:01;24.10;37.45
73149;SHT30;61346;48.930;2.266;2022-08-11T02:55:46;24.05;37.50
73149;SHT30;61346;48.930;2.266;2022-08-11T02:58:40;24.02;37.96
73149;SHT30;61346;48.930;2.266;2022-08-11T03:02:09;23.98;37.59
73149;SHT30;61346;48.930;2.266;2022-08-11T03:04:08;23.95;37.74
73149;SHT30;61346;48.930;2.266;2022-08-11T03:06:49;23.90;37.81
73149;SHT30;61346;48.930;2.266;2022-08-11T03:09:29;23.86;37.64
73149;SHT30;61346;48.930;2.266;2022-08-11T03:12:12;23.85;38.03
73149;SHT30;61346;48.930;2.266;2022-08-11T03:15:09;23.79;38.13
73149;SHT30;61346;48.930;2.266;2022-08-11T03:20:31;23.71;38.45
73149;SHT30;61346;48.930;2.266;2022-08-11T03:23:10;23.65;39.10
73149;SHT30;61346;48.930;2.266;2022-08-11T03:29:04;23.57;39.36
73149;SHT30;61346;48.930;2.266;2022-08-11T03:31:44;23.50;39.71
73149;SHT30;61346;48.930;2.266;2022-08-11T03:34:30;23.46;39.71
73149;SHT30;61346;48.930;2.266;2022-08-11T03:37:21;23.36;40.05
73149;SHT30;61346;48.930;2.266;2022-08-11T03:43:17;23.26;40.33
73149;SHT30;61346;48.930;2.266;2022-08-11T03:45:59;23.19;40.52
73149;SHT30;61346;48.930;2.266;2022-08-11T03:51:21;23.12;40.68
73149;SHT30;61346;48.930;2.266;2022-08-11T03:59:59;22.99;41.24
73149;SHT30;61346;48.930;2.266;2022-08-11T04:14:18;22.75;41.92
73149;SHT30;61346;48.930;2.266;2022-08-11T04:26:02;22.61;42.27
73149;SHT30;61346;48.930;2.266;2022-08-11T04:28:54;22.58;42.40
73149;SHT30;61346;48.930;2.266;2022-08-11T04:31:35;22.57;42.60
73149;SHT30;61346;48.930;2.266;2022-08-11T04:40:02;22.47;43.00
73149;SHT30;61346;48.930;2.266;2022-08-11T04:56:07;22.33;43.58
73149;SHT30;61346;48.930;2.266;2022-08-11T05:04:49;22.30;43.43
73149;SHT30;61346;48.930;2.266;2022-08-11T05:16:31;22.24;44.15
73149;SHT30;61346;48.930;2.266;2022-08-11T05:19:37;22.20;44.45
73149;SHT30;61346;48.930;2.266;2022-08-11T05:22:27;22.20;44.60
73149;SHT30;61346;48.930;2.266;2022-08-11T05:25:58;22.21;44.74
73149;SHT30;61346;48.930;2.266;2022-08-11T05:28:36;22.24;44.72
73149;SHT30;61346;48.930;2.266;2022-08-11T05:31:30;22.27;45.08
73149;SHT30;61346;48.930;2.266;2022-08-11T05:34:27;22.24;44.92
73149;SHT30;61346;48.930;2.266;2022-08-11T05:41:22;22.27;45.11
73149;SHT30;61346;48.930;2.266;2022-08-11T05:44:30;22.30;45.12
73149;SHT30;61346;48.930;2.266;2022-08-11T05:47:33;22.34;44.88
73149;SHT30;61346;48.930;2.266;2022-08-11T05:50:22;22.36;44.86
73149;SHT30;61346;48.930;2.266;2022-08-11T05:53:31;22.38;45.05
73149;SHT30;61346;48.930;2.266;2022-08-11T05:56:43;22.44;44.89
73149;SHT30;61346;48.930;2.266;2022-08-11T05:59:48;22.50;44.84
73149;SHT30;61346;48.930;2.266;2022-08-11T06:02:47;22.57;44.66
73149;SHT30;61346;48.930;2.266;2022-08-11T06:05:13;22.61;45.09
73149;SHT30;61346;48.930;2.266;2022-08-11T06:07:47;22.65;45.12
73149;SHT30;61346;48.930;2.266;2022-08-11T06:10:13;22.73;45.04
73149;SHT30;61346;48.930;2.266;2022-08-11T06:12:51;22.78;45.65
73149;SHT30;61346;48.930;2.266;2022-08-11T06:15:17;22.84;45.07
73149;SHT30;61346;48.930;2.266;2022-08-11T06:17:45;22.88;44.91
73149;SHT30;61346;48.930;2.266;2022-08-11T06:20:12;22.93;44.50
73149;SHT30;61346;48.930;2.266;2022-08-11T06:22:42;23.00;44.59
73149;SHT30;61346;48.930;2.266;2022-08-11T06:25:09;23.06;44.34
73149;SHT30;61346;48.930;2.266;2022-08-11T06:27:37;23.16;43.97
73149;SHT30;61346;48.930;2.266;2022-08-11T06:30:05;23.20;43.51
73149;SHT30;61346;48.930;2.266;2022-08-11T06:32:39;23.28;43.34
73149;SHT30;61346;48.930;2.266;2022-08-11T06:35:24;23.37;43.02
73149;SHT30;61346;48.930;2.266;2022-08-11T06:38:14;23.43;42.87
73149;SHT30;61346;48.930;2.266;2022-08-11T06:41:00;23.53;42.63
73149;SHT30;61346;48.930;2.266;2022-08-11T06:46:45;23.68;42.30
73149;SHT30;61346;48.930;2.266;2022-08-11T06:49:14;23.74;42.10
73149;SHT30;61346;48.930;2.266;2022-08-11T06:52:07;23.84;41.94
73149;SHT30;61346;48.930;2.266;2022-08-11T06:54:40;23.89;41.85
73149;SHT30;61346;48.930;2.266;2022-08-11T06:57:11;23.95;41.69
73149;SHT30;61346;48.930;2.266;2022-08-11T06:59:57;24.02;41.59
73149;SHT30;61346;48.930;2.266;2022-08-11T07:02:56;24.12;41.49
73149;SHT30;61346;48.930;2.266;2022-08-11T07:05:44;24.19;41.21
73149;SHT30;61346;48.930;2.266;2022-08-11T07:11:52;24.36;40.99
73149;SHT30;61346;48.930;2.266;2022-08-11T07:14:41;24.41;40.84
73149;SHT30;61346;48.930;2.266;2022-08-11T07:17:30;24.50;40.76
73149;SHT30;61346;48.930;2.266;2022-08-11T07:20:02;24.56;40.61
73149;SHT30;61346;48.930;2.266;2022-08-11T07:22:56;24.67;40.53
73149;SHT30;61346;48.930;2.266;2022-08-11T07:25:43;24.75;40.36
73149;SHT30;61346;48.930;2.266;2022-08-11T07:28:29;24.84;40.08
73149;SHT30;61346;48.930;2.266;2022-08-11T07:31:20;24.89;39.79
73149;SHT30;61346;48.930;2.266;2022-08-11T07:34:19;25.01;39.80
73149;SHT30;61346;48.930;2.266;2022-08-11T07:36:57;25.11;39.67
73149;SHT30;61346;48.930;2.266;2022-08-11T07:39:25;25.14;39.53
73149;SHT30;61346;48.930;2.266;2022-08-11T07:41:53;25.22;39.34
73149;SHT30;61346;48.930;2.266;2022-08-11T07:44:19;25.27;39.22
73149;SHT30;61346;48.930;2.266;2022-08-11T07:46:48;25.36;39.25
73149;SHT30;61346;48.930;2.266;2022-08-11T07:49:37;25.42;39.10
73149;SHT30;61346;48.930;2.266;2022-08-11T07:52:27;25.50;38.78
73149;SHT30;61346;48.930;2.266;2022-08-11T07:55:05;25.59;38.79
73149;SHT30;61346;48.930;2.266;2022-08-11T07:57:32;25.71;38.77
73149;SHT30;61346;48.930;2.266;2022-08-11T08:00:17;25.74;38.64
73149;SHT30;61346;48.930;2.266;2022-08-11T08:03:03;25.84;38.57
73149;SHT30;61346;48.930;2.266;2022-08-11T08:05:49;25.94;38.46
73149;SHT30;61346;48.930;2.266;2022-08-11T08:08:35;26.00;38.33
73149;SHT30;61346;48.930;2.266;2022-08-11T08:11:20;26.09;38.21
73149;SHT30;61346;48.930;2.266;2022-08-11T08:14:07;26.17;38.23
73149;SHT30;61346;48.930;2.266;2022-08-11T08:16:53;26.28;38.02
73149;SHT30;61346;48.930;2.266;2022-08-11T08:19:38;26.36;37.23
73149;SHT30;61346;48.930;2.266;2022-08-11T08:22:05;26.49;37.58
73149;SHT30;61346;48.930;2.266;2022-08-11T08:24:30;26.53;37.35
73149;SHT30;61346;48.930;2.266;2022-08-11T08:26:58;26.64;37.14
73149;SHT30;61346;48.930;2.266;2022-08-11T08:29:30;26.73;36.86
73149;SHT30;61346;48.930;2.266;2022-08-11T08:32:16;26.81;36.21
73149;SHT30;61346;48.930;2.266;2022-08-11T08:34:43;26.93;36.47
73149;SHT30;61346;48.930;2.266;2022-08-11T08:37:09;27.02;36.42
73149;SHT30;61346;48.930;2.266;2022-08-11T08:39:35;27.11;36.38
73149;SHT30;61346;48.930;2.266;2022-08-11T08:42:08;27.22;35.42
73149;SHT30;61346;48.930;2.266;2022-08-11T08:44:35;27.28;35.98
73149;SHT30;61346;48.930;2.266;2022-08-11T08:47:04;27.38;35.74
73149;SHT30;61346;48.930;2.266;2022-08-11T08:49:36;27.45;35.88
73149;SHT30;61346;48.930;2.266;2022-08-11T08:52:05;27.52;35.77
73149;SHT30;61346;48.930;2.266;2022-08-11T08:54:37;27.60;36.01
73149;SHT30;61346;48.930;2.266;2022-08-11T08:57:06;27.69;35.65
73149;SHT30;61346;48.930;2.266;2022-08-11T08:59:37;27.76;35.59
73149;SHT30;61346;48.930;2.266;2022-08-11T09:02:04;27.83;35.37
73149;SHT30;61346;48.930;2.266;2022-08-11T09:04:32;27.92;35.43
73149;SHT30;61346;48.930;2.266;2022-08-11T09:07:05;27.97;35.28
73149;SHT30;61346;48.930;2.266;2022-08-11T09:09:33;28.07;35.49
73149;SHT30;61346;48.930;2.266;2022-08-11T09:11:59;28.17;35.15
73149;SHT30;61346;48.930;2.266;2022-08-11T09:14:27;28.27;34.93
73149;SHT30;61346;48.930;2.266;2022-08-11T09:17:17;28.37;34.94
73149;SHT30;61346;48.930;2.266;2022-08-11T09:19:44;28.47;34.80
73149;SHT30;61346;48.930;2.266;2022-08-11T09:22:10;28.53;34.27
73149;SHT30;61346;48.930;2.266;2022-08-11T09:24:55;28.68;34.73
73149;SHT30;61346;48.930;2.266;2022-08-11T09:27:39;28.76;34.62
73149;SHT30;61346;48.930;2.266;2022-08-11T09:30:06;28.86;34.37
73149;SHT30;61346;48.930;2.266;2022-08-11T09:32:33;28.93;34.53
73149;SHT30;61346;48.930;2.266;2022-08-11T09:35:00;29.02;34.50
73149;SHT30;61346;48.930;2.266;2022-08-11T09:37:28;29.07;34.34
73149;SHT30;61346;48.930;2.266;2022-08-11T09:40:14;29.21;33.23
73149;SHT30;61346;48.930;2.266;2022-08-11T09:42:56;29.32;33.05
73149;SHT30;61346;48.930;2.266;2022-08-11T09:45:44;29.44;33.55
73149;SHT30;61346;48.930;2.266;2022-08-11T09:48:19;29.57;33.48
73149;SHT30;61346;48.930;2.266;2022-08-11T09:50:52;29.69;33.19
73149;SHT30;61346;48.930;2.266;2022-08-11T09:53:20;29.78;32.65
73149;SHT30;61346;48.930;2.266;2022-08-11T09:55:46;29.83;32.61
73149;SHT30;61346;48.930;2.266;2022-08-11T09:58:13;29.96;32.12
73149;SHT30;61346;48.930;2.266;2022-08-11T10:00:41;30.07;32.52
73149;SHT30;61346;48.930;2.266;2022-08-11T10:03:43;30.13;31.97
73149;SHT30;61346;48.930;2.266;2022-08-11T10:06:03;30.21;31.73
73149;SHT30;61346;48.930;2.266;2022-08-11T10:08:50;30.31;31.39
73149;SHT30;61346;48.930;2.266;2022-08-11T10:11:20;30.45;31.31
73149;SHT30;61346;48.930;2.266;2022-08-11T10:13:51;30.60;30.81
73149;SHT30;61346;48.930;2.266;2022-08-11T10:16:38;30.71;30.34
73149;SHT30;61346;48.930;2.266;2022-08-11T10:19:05;30.81;30.20
73149;SHT30;61346;48.930;2.266;2022-08-11T10:21:40;30.86;30.60
73149;SHT30;61346;48.930;2.266;2022-08-11T10:24:07;30.96;30.72
73149;SHT30;61346;48.930;2.266;2022-08-11T10:26:59;31.00;29.91
73149;SHT30;61346;48.930;2.266;2022-08-11T10:29:32;31.09;26.43
73149;SHT30;61346;48.930;2.266;2022-08-11T10:32:24;31.20;27.41
73149;SHT30;61346;48.930;2.266;2022-08-11T10:35:12;31.33;26.72
73149;SHT30;61346;48.930;2.266;2022-08-11T10:38:02;31.38;27.76
73149;SHT30;61346;48.930;2.266;2022-08-11T10:40:45;31.48;27.60
73149;SHT30;61346;48.930;2.266;2022-08-11T10:43:36;31.57;28.94
73149;SHT30;61346;48.930;2.266;2022-08-11T10:46:07;31.65;29.02
73149;SHT30;61346;48.930;2.266;2022-08-11T10:48:53;31.72;29.07
73149;SHT30;61346;48.930;2.266;2022-08-11T10:51:19;31.80;28.37
73149;SHT30;61346;48.930;2.266;2022-08-11T10:53:47;31.86;27.43
73149;SHT30;61346;48.930;2.266;2022-08-11T10:56:37;31.95;28.76
73149;SHT30;61346;48.930;2.266;2022-08-11T10:59:26;32.05;28.08
73149;SHT30;61346;48.930;2.266;2022-08-11T11:02:24;32.15;27.09
73149;SHT30;61346;48.930;2.266;2022-08-11T11:05:01;32.26;27.00
73149;SHT30;61346;48.930;2.266;2022-08-11T11:07:53;32.33;27.92
73149;SHT30;61346;48.930;2.266;2022-08-11T11:10:19;32.40;25.90
73149;SHT30;61346;48.930;2.266;2022-08-11T11:12:59;32.50;26.49
73149;SHT30;61346;48.930;2.266;2022-08-11T11:15:53;32.59;27.73
73149;SHT30;61346;48.930;2.266;2022-08-11T11:18:38;32.67;25.27
73149;SHT30;61346;48.930;2.266;2022-08-11T11:21:07;32.75;27.02
73149;SHT30;61346;48.930;2.266;2022-08-11T11:24:01;32.81;26.88
73149;SHT30;61346;48.930;2.266;2022-08-11T11:32:25;33.02;27.54
73149;SHT30;61346;48.930;2.266;2022-08-11T11:43:47;33.32;27.26
73149;SHT30;61346;48.930;2.266;2022-08-11T11:46:12;33.33;27.33
73149;SHT30;61346;48.930;2.266;2022-08-11T11:48:41;33.39;26.73
73149;SHT30;61346;48.930;2.266;2022-08-11T11:51:30;33.42;27.13
73149;SHT30;61346;48.930;2.266;2022-08-11T11:54:07;33.49;27.18
73149;SHT30;61346;48.930;2.266;2022-08-11T11:56:37;33.49;27.05
73149;SHT30;61346;48.930;2.266;2022-08-11T11:59:03;33.56;26.96
73149;SHT30;61346;48.930;2.266;2022-08-11T12:01:47;33.62;26.92
73149;SHT30;61346;48.930;2.266;2022-08-11T12:04:14;33.67;26.56
73149;SHT30;61346;48.930;2.266;2022-08-11T12:06:41;33.87;26.39
73149;SHT30;61346;48.930;2.266;2022-08-11T12:09:10;35.31;26.78
73149;SHT30;61346;48.930;2.266;2022-08-11T12:11:45;37.06;23.28
73149;SHT30;61346;48.930;2.266;2022-08-11T12:14:29;37.89;22.82
73149;SHT30;61346;48.930;2.266;2022-08-11T12:16:58;38.32;24.42
73149;SHT30;61346;48.930;2.266;2022-08-11T12:19:34;38.13;24.56
73149;SHT30;61346;48.930;2.266;2022-08-11T12:22:23;37.64;24.22
73149;SHT30;61346;48.930;2.266;2022-08-11T12:25:08;37.27;23.73
73149;SHT30;61346;48.930;2.266;2022-08-11T12:27:53;37.00;24.21
73149;SHT30;61346;48.930;2.266;2022-08-11T12:30:19;36.84;23.91
73149;SHT30;61346;48.930;2.266;2022-08-11T12:32:46;36.74;23.76
73149;SHT30;61346;48.930;2.266;2022-08-11T12:35:14;36.64;24.06
73149;SHT30;61346;48.930;2.266;2022-08-11T12:37:46;36.54;24.31
73149;SHT30;61346;48.930;2.266;2022-08-11T12:40:14;36.99;24.24
73149;SHT30;61346;48.930;2.266;2022-08-11T12:43:00;37.56;23.74
73149;SHT30;61346;48.930;2.266;2022-08-11T12:45:46;37.58;22.98
73149;SHT30;61346;48.930;2.266;2022-08-11T12:48:18;37.36;23.54
73149;SHT30;61346;48.930;2.266;2022-08-11T12:51:06;37.16;23.15
73149;SHT30;61346;48.930;2.266;2022-08-11T12:54:08;36.95;23.50
73149;SHT30;61346;48.930;2.266;2022-08-11T12:56:41;37.02;23.08
73149;SHT30;61346;48.930;2.266;2022-08-11T12:59:27;37.15;23.09
73149;SHT30;61346;48.930;2.266;2022-08-11T13:02:16;37.03;23.11
73149;SHT30;61346;48.930;2.266;2022-08-11T13:05:03;36.89;22.98
73149;SHT30;61346;48.930;2.266;2022-08-11T13:07:30;36.71;23.35
73149;SHT30;61346;48.930;2.266;2022-08-11T13:09:57;36.55;23.22
73149;SHT30;61346;48.930;2.266;2022-08-11T13:12:32;36.47;23.40
73149;SHT30;61346;48.930;2.266;2022-08-11T13:17:40;36.37;22.95
73149;SHT30;61346;48.930;2.266;2022-08-11T13:20:08;36.38;23.42
73149;SHT30;61346;48.930;2.266;2022-08-11T13:22:35;36.38;23.26
73149;SHT30;61346;48.930;2.266;2022-08-11T13:25:04;36.31;23.43
73149;SHT30;61346;48.930;2.266;2022-08-11T13:27:30;36.30;23.39
73149;SHT30;61346;48.930;2.266;2022-08-11T13:29:56;36.29;23.44
73149;SHT30;61346;48.930;2.266;2022-08-11T13:32:43;36.30;23.07
73149;SHT30;61346;48.930;2.266;2022-08-11T13:35:09;36.30;23.02
73149;SHT30;61346;48.930;2.266;2022-08-11T13:37:37;36.24;22.98
73149;SHT30;61346;48.930;2.266;2022-08-11T13:40:04;36.15;22.77
73149;SHT30;61346;48.930;2.266;2022-08-11T13:42:30;36.17;23.15
73149;SHT30;61346;48.930;2.266;2022-08-11T13:44:56;36.27;22.91
73149;SHT30;61346;48.930;2.266;2022-08-11T13:47:23;36.36;23.18
73149;SHT30;61346;48.930;2.266;2022-08-11T13:49:49;36.40;22.83
73149;SHT30;61346;48.930;2.266;2022-08-11T13:52:16;37.00;22.18
73149;SHT30;61346;48.930;2.266;2022-08-11T13:54:45;37.31;22.41
73149;SHT30;61346;48.930;2.266;2022-08-11T13:57:13;37.18;22.54
73149;SHT30;61346;48.930;2.266;2022-08-11T13:59:41;37.12;22.57
73149;SHT30;61346;48.930;2.266;2022-08-11T14:02:14;37.05;22.24
73149;SHT30;61346;48.930;2.266;2022-08-11T14:04:52;37.09;22.28
73149;SHT30;61346;48.930;2.266;2022-08-11T14:07:21;37.19;21.94
73149;SHT30;61346;48.930;2.266;2022-08-11T14:09:48;37.27;22.54
73149;SHT30;61346;48.930;2.266;2022-08-11T14:12:24;37.22;21.99
73149;SHT30;61346;48.930;2.266;2022-08-11T14:15:32;37.16;21.97
73149;SHT30;61346;48.930;2.266;2022-08-11T14:18:07;37.09;21.83
73149;SHT30;61346;48.930;2.266;2022-08-11T14:20:36;37.06;22.46
73149;SHT30;61346;48.930;2.266;2022-08-11T14:23:37;37.15;22.60
73149;SHT30;61346;48.930;2.266;2022-08-11T14:26:04;37.34;21.62
73149;SHT30;61346;48.930;2.266;2022-08-11T14:28:52;37.60;22.58
73149;SHT30;61346;48.930;2.266;2022-08-11T14:31:21;38.21;22.61
73149;SHT30;61346;48.930;2.266;2022-08-11T14:33:53;39.03;22.16
73149;SHT30;61346;48.930;2.266;2022-08-11T14:36:21;39.70;21.98
73149;SHT30;61346;48.930;2.266;2022-08-11T14:38:47;40.38;21.32
73149;SHT30;61346;48.930;2.266;2022-08-11T14:41:14;40.87;21.23
73149;SHT30;61346;48.930;2.266;2022-08-11T14:43:59;40.83;20.90
73149;SHT30;61346;48.930;2.266;2022-08-11T14:46:43;40.89;21.13
73149;SHT30;61346;48.930;2.266;2022-08-11T14:49:28;41.07;20.64
73149;SHT30;61346;48.930;2.266;2022-08-11T14:51:54;41.38;19.32
73149;SHT30;61346;48.930;2.266;2022-08-11T14:54:27;41.93;20.50
73149;SHT30;61346;48.930;2.266;2022-08-11T14:57:12;42.37;20.41
73149;SHT30;61346;48.930;2.266;2022-08-11T14:59:38;42.76;18.42
73149;SHT30;61346;48.930;2.266;2022-08-11T15:02:04;43.78;19.72
73149;SHT30;61346;48.930;2.266;2022-08-11T15:04:51;45.54;18.85
73149;SHT30;61346;48.930;2.266;2022-08-11T15:07:18;46.23;18.17
73149;SHT30;61346;48.930;2.266;2022-08-11T15:09:54;47.10;17.70
73149;SHT30;61346;48.930;2.266;2022-08-11T15:12:20;48.14;17.26
73149;SHT30;61346;48.930;2.266;2022-08-11T15:14:47;49.33;16.19
73149;SHT30;61346;48.930;2.266;2022-08-11T15:17:33;50.63;15.92
73149;SHT30;61346;48.930;2.266;2022-08-11T15:20:02;51.36;15.21
73149;SHT30;61346;48.930;2.266;2022-08-11T15:22:46;51.85;15.96
73149;SHT30;61346;48.930;2.266;2022-08-11T15:25:31;52.44;15.16
73149;SHT30;61346;48.930;2.266;2022-08-11T15:27:59;52.96;14.65
73149;SHT30;61346;48.930;2.266;2022-08-11T15:30:46;53.58;15.00
73149;SHT30;61346;48.930;2.266;2022-08-11T15:33:34;54.10;14.15
73149;SHT30;61346;48.930;2.266;2022-08-11T15:36:20;54.50;14.32
73149;SHT30;61346;48.930;2.266;2022-08-11T15:39:47;54.99;14.00
73149;SHT30;61346;48.930;2.266;2022-08-11T15:42:35;55.36;14.00
73149;SHT30;61346;48.930;2.266;2022-08-11T15:45:21;55.80;13.59
73149;SHT30;61346;48.930;2.266;2022-08-11T15:48:09;56.07;13.01
73149;SHT30;61346;48.930;2.266;2022-08-11T15:50:39;56.07;13.37
73149;SHT30;61346;48.930;2.266;2022-08-11T15:53:11;56.12;12.98
73149;SHT30;61346;48.930;2.266;2022-08-11T15:55:42;56.18;12.88
73149;SHT30;61346;48.930;2.266;2022-08-11T15:58:08;56.24;13.06
73149;SHT30;61346;48.930;2.266;2022-08-11T16:00:54;56.21;12.62
73149;SHT30;61346;48.930;2.266;2022-08-11T16:03:56;56.08;12.84
73149;SHT30;61346;48.930;2.266;2022-08-11T16:09:13;56.22;12.86
73149;SHT30;61346;48.930;2.266;2022-08-11T16:11:40;56.34;12.86
73149;SHT30;61346;48.930;2.266;2022-08-11T16:14:09;56.28;10.74
73149;SHT30;61346;48.930;2.266;2022-08-11T16:16:56;56.24;12.84
73149;SHT30;61346;48.930;2.266;2022-08-11T16:19:23;56.38;12.88
73149;SHT30;61346;48.930;2.266;2022-08-11T16:21:51;56.49;12.51
73149;SHT30;61346;48.930;2.266;2022-08-11T16:24:18;56.47;12.31
73149;SHT30;61346;48.930;2.266;2022-08-11T16:26:46;56.40;12.43
73149;SHT30;61346;48.930;2.266;2022-08-11T16:29:12;56.28;12.27
73149;SHT30;61346;48.930;2.266;2022-08-11T16:31:39;56.25;12.69
73149;SHT30;61346;48.930;2.266;2022-08-11T16:34:06;56.32;12.70
73149;SHT30;61346;48.930;2.266;2022-08-11T16:36:56;56.32;12.73
73149;SHT30;61346;48.930;2.266;2022-08-11T16:39:41;56.32;12.44
73149;SHT30;61346;48.930;2.266;2022-08-11T16:42:08;56.22;12.62
73149;SHT30;61346;48.930;2.266;2022-08-11T16:44:54;56.22;12.62
73149;SHT30;61346;48.930;2.266;2022-08-11T16:47:41;56.15;12.51
73149;SHT30;61346;48.930;2.266;2022-08-11T16:50:08;55.85;12.37
73149;SHT30;61346;48.930;2.266;2022-08-11T16:52:34;55.58;12.43
73149;SHT30;61346;48.930;2.266;2022-08-11T16:54:59;55.47;12.66
73149;SHT30;61346;48.930;2.266;2022-08-11T16:57:28;55.37;11.55
73149;SHT30;61346;48.930;2.266;2022-08-11T17:00:14;55.09;12.57
73149;SHT30;61346;48.930;2.266;2022-08-11T17:02:51;54.68;12.47
73149;SHT30;61346;48.930;2.266;2022-08-11T17:05:43;54.19;12.62
73149;SHT30;61346;48.930;2.266;2022-08-11T17:08:38;53.72;12.62
73149;SHT30;61346;48.930;2.266;2022-08-11T17:11:28;53.26;12.71
73149;SHT30;61346;48.930;2.266;2022-08-11T17:14:17;52.64;12.79
73149;SHT30;61346;48.930;2.266;2022-08-11T17:16:44;51.64;12.86
73149;SHT30;61346;48.930;2.266;2022-08-11T17:19:21;50.19;12.80
73149;SHT30;61346;48.930;2.266;2022-08-11T17:21:49;48.45;13.17
73149;SHT30;61346;48.930;2.266;2022-08-11T17:24:40;47.01;13.69
73149;SHT30;61346;48.930;2.266;2022-08-11T17:27:08;46.03;14.00
73149;SHT30;61346;48.930;2.266;2022-08-11T17:29:41;45.25;14.40
73149;SHT30;61346;48.930;2.266;2022-08-11T17:32:12;45.04;14.57
73149;SHT30;61346;48.930;2.266;2022-08-11T17:35:01;44.93;15.07
73149;SHT30;61346;48.930;2.266;2022-08-11T17:37:48;44.70;15.04
73149;SHT30;61346;48.930;2.266;2022-08-11T17:40:22;44.43;15.31
73149;SHT30;61346;48.930;2.266;2022-08-11T17:42:53;44.07;15.33
73149;SHT30;61346;48.930;2.266;2022-08-11T17:45:40;43.65;15.55
73149;SHT30;61346;48.930;2.266;2022-08-11T17:48:37;43.27;15.80
73149;SHT30;61346;48.930;2.266;2022-08-11T17:51:06;42.98;15.92
73149;SHT30;61346;48.930;2.266;2022-08-11T17:53:43;42.67;16.10
73149;SHT30;61346;48.930;2.266;2022-08-11T17:56:30;42.32;16.29
73149;SHT30;61346;48.930;2.266;2022-08-11T17:59:16;41.99;16.29
73149;SHT30;61346;48.930;2.266;2022-08-11T18:02:03;41.68;16.47
73149;SHT30;61346;48.930;2.266;2022-08-11T18:04:53;41.58;16.69
73149;SHT30;61346;48.930;2.266;2022-08-11T18:07:20;41.30;16.60
73149;SHT30;61346;48.930;2.266;2022-08-11T18:10:06;41.05;16.84
73149;SHT30;61346;48.930;2.266;2022-08-11T18:12:52;40.82;16.99
73149;SHT30;61346;48.930;2.266;2022-08-11T18:15:54;40.52;17.13
73149;SHT30;61346;48.930;2.266;2022-08-11T18:18:38;39.96;17.26
73149;SHT30;61346;48.930;2.266;2022-08-11T18:21:24;39.29;17.61
73149;SHT30;61346;48.930;2.266;2022-08-11T18:24:32;38.53;17.99
73149;SHT30;61346;48.930;2.266;2022-08-11T18:27:23;37.84;18.53
73149;SHT30;61346;48.930;2.266;2022-08-11T18:30:09;37.23;18.82
73149;SHT30;61346;48.930;2.266;2022-08-11T18:32:57;36.71;18.98
73149;SHT30;61346;48.930;2.266;2022-08-11T18:35:46;36.23;19.25
73149;SHT30;61346;48.930;2.266;2022-08-11T18:38:34;35.83;19.50
73149;SHT30;61346;48.930;2.266;2022-08-11T18:41:20;35.45;19.81
73149;SHT30;61346;48.930;2.266;2022-08-11T18:44:06;35.13;19.90
73149;SHT30;61346;48.930;2.266;2022-08-11T18:46:52;34.80;20.20
73149;SHT30;61346;48.930;2.266;2022-08-11T18:49:40;34.48;20.39
73149;SHT30;61346;48.930;2.266;2022-08-11T18:52:27;34.25;20.72
73149;SHT30;61346;48.930;2.266;2022-08-11T18:55:16;33.98;20.81
73149;SHT30;61346;48.930;2.266;2022-08-11T18:58:04;33.74;20.91
73149;SHT30;61346;48.930;2.266;2022-08-11T19:01:20;33.50;21.27
73149;SHT30;61346;48.930;2.266;2022-08-11T19:04:05;33.29;21.36
73149;SHT30;61346;48.930;2.266;2022-08-11T19:06:56;33.11;21.47
73149;SHT30;61346;48.930;2.266;2022-08-11T19:09:43;32.94;21.51
73149;SHT30;61346;48.930;2.266;2022-08-11T19:12:34;32.82;21.69
73149;SHT30;61346;48.930;2.266;2022-08-11T19:15:23;32.67;21.78
73149;SHT30;61346;48.930;2.266;2022-08-11T19:18:12;32.52;21.98
73149;SHT30;61346;48.930;2.266;2022-08-11T19:20:58;32.39;22.23
73149;SHT30;61346;48.930;2.266;2022-08-11T19:23:44;32.26;22.38
73149;SHT30;61346;48.930;2.266;2022-08-11T19:26:34;32.10;22.34
73149;SHT30;61346;48.930;2.266;2022-08-11T19:29:23;32.04;22.58
73149;SHT30;61346;48.930;2.266;2022-08-11T19:32:30;31.86;22.81
73149;SHT30;61346;48.930;2.266;2022-08-11T19:35:18;31.77;22.88